sensor_id;sensor_type;location;lat;lon;timestamp;pressure;altitude;pressure_sealevel;temperature;humidity
44351;BME280;62766;62.622;17.912;2022-11-20T00:00:35;102084.56;;;-0.62;67.88
44351;BME280;62766;62.622;17.912;2022-11-20T00:03:03;102080.18;;;-0.45;67.93
44351;BME280;62766;62.622;17.912;2022-11-20T00:05:33;102075.25;;;-0.43;67.56
44351;BME280;62766;62.622;17.912;2022-11-20T00:08:02;102071.49;;;-0.50;67.48
44351;BME280;62766;62.622;17.912;2022-11-20T00:10:31;102065.38;;;-0.42;67.33
44351;BME280;62766;62.622;17.912;2022-11-20T00:13:01;102062.37;;;-0.51;67.22
44351;BME280;62766;62.622;17.912;2022-11-20T00:15:32;102059.87;;;-0.53;67.10
44351;BME280;62766;62.622;17.912;2022-11-20T00:18:00;102064.67;;;-0.49;67.09
44351;BME280;62766;62.622;17.912;2022-11-20T00:20:28;102063.66;;;-0.56;66.82
44351;BME280;62766;62.622;17.912;2022-11-20T00:22:57;102060.55;;;-0.51;66.82
44351;BME280;62766;62.622;17.912;2022-11-20T00:25:25;102063.24;;;-0.54;66.74
44351;BME280;62766;62.622;17.912;2022-11-20T00:27:54;102059.79;;;-0.53;66.67
44351;BME280;62766;62.622;17.912;2022-11-20T00:30:22;102050.35;;;-0.49;66.49
44351;BME280;62766;62.622;17.912;2022-11-20T00:32:51;102048.50;;;-0.47;66.30
44351;BME280;62766;62.622;17.912;2022-11-20T00:35:19;102044.66;;;-0.46;65.98
44351;BME280;62766;62.622;17.912;2022-11-20T00:37:48;102043.44;;;-0.56;65.94
44351;BME280;62766;62.622;17.912;2022-11-20T00:40:17;102036.72;;;-0.46;65.95
44351;BME280;62766;62.622;17.912;2022-11-20T00:42:50;102040.51;;;-0.56;66.04
44351;BME280;62766;62.622;17.912;2022-11-20T00:45:19;102042.62;;;-0.60;65.92
44351;BME280;62766;62.622;17.912;2022-11-20T00:47:47;102039.14;;;-0.51;66.00
44351;BME280;62766;62.622;17.912;2022-11-20T00:50:17;102032.33;;;-0.52;65.65
44351;BME280;62766;62.622;17.912;2022-11-20T00:52:46;102027.96;;;-0.56;65.58
44351;BME280;62766;62.622;17.912;2022-11-20T00:55:15;102027.12;;;-0.56;65.66
44351;BME280;62766;62.622;17.912;2022-11-20T00:57:43;102021.88;;;-0.55;65.36
44351;BME280;62766;62.622;17.912;2022-11-20T01:00:12;102025.19;;;-0.57;65.21
44351;BME280;62766;62.622;17.912;2022-11-20T01:02:40;102024.18;;;-0.50;65.24
44351;BME280;62766;62.622;17.912;2022-11-20T01:05:09;102030.00;;;-0.57;65.16
44351;BME280;62766;62.622;17.912;2022-11-20T01:07:37;102029.35;;;-0.53;65.14
44351;BME280;62766;62.622;17.912;2022-11-20T01:10:07;102027.85;;;-0.48;64.93
44351;BME280;62766;62.622;17.912;2022-11-20T01:12:36;102023.67;;;-0.66;64.80
44351;BME280;62766;62.622;17.912;2022-11-20T01:15:05;102027.12;;;-0.44;64.91
44351;BME280;62766;62.622;17.912;2022-11-20T01:17:34;102017.92;;;-0.47;64.88
44351;BME280;62766;62.622;17.912;2022-11-20T01:20:04;102010.88;;;-0.50;64.72
44351;BME280;62766;62.622;17.912;2022-11-20T01:22:35;102010.72;;;-0.63;64.63
44351;BME280;62766;62.622;17.912;2022-11-20T01:25:05;102008.29;;;-0.41;64.80
44351;BME280;62766;62.622;17.912;2022-11-20T01:27:35;102000.94;;;-0.49;64.75
44351;BME280;62766;62.622;17.912;2022-11-20T01:30:03;102000.15;;;-0.48;64.62
44351;BME280;62766;62.622;17.912;2022-11-20T01:32:34;102001.21;;;-0.38;64.45
44351;BME280;62766;62.622;17.912;2022-11-20T01:35:02;101998.99;;;-0.42;64.45
44351;BME280;62766;62.622;17.912;2022-11-20T01:37:30;102000.35;;;-0.41;64.36
44351;BME280;62766;62.622;17.912;2022-11-20T01:39:59;102000.03;;;-0.47;64.30
44351;BME280;62766;62.622;17.912;2022-11-20T01:42:28;101997.64;;;-0.28;64.09
44351;BME280;62766;62.622;17.912;2022-11-20T01:44:57;101997.52;;;-0.28;63.90
44351;BME280;62766;62.622;17.912;2022-11-20T01:47:32;101997.27;;;-0.33;63.85
44351;BME280;62766;62.622;17.912;2022-11-20T01:50:06;101989.55;;;-0.26;63.62
44351;BME280;62766;62.622;17.912;2022-11-20T01:52:42;101985.23;;;-0.34;63.51
44351;BME280;62766;62.622;17.912;2022-11-20T01:55:18;101981.08;;;-0.24;63.36
44351;BME280;62766;62.622;17.912;2022-11-20T01:57:49;101972.52;;;-0.20;63.32
44351;BME280;62766;62.622;17.912;2022-11-20T02:00:20;101971.49;;;-0.44;63.14
44351;BME280;62766;62.622;17.912;2022-11-20T02:02:53;101971.18;;;-0.47;63.11
44351;BME280;62766;62.622;17.912;2022-11-20T02:05:31;101968.36;;;-0.44;63.28
44351;BME280;62766;62.622;17.912;2022-11-20T02:08:03;101972.41;;;-0.43;63.38
44351;BME280;62766;62.622;17.912;2022-11-20T02:10:33;101971.87;;;-0.34;63.13
44351;BME280;62766;62.622;17.912;2022-11-20T02:13:03;101964.81;;;-0.32;63.06
44351;BME280;62766;62.622;17.912;2022-11-20T02:15:33;101955.11;;;-0.23;62.76
44351;BME280;62766;62.622;17.912;2022-11-20T02:18:03;101952.44;;;-0.44;62.81
44351;BME280;62766;62.622;17.912;2022-11-20T02:20:32;101948.74;;;-0.49;62.90
44351;BME280;62766;62.622;17.912;2022-11-20T02:23:05;101945.14;;;-0.48;63.05
44351;BME280;62766;62.622;17.912;2022-11-20T02:25:37;101940.39;;;-0.56;62.98
44351;BME280;62766;62.622;17.912;2022-11-20T02:28:07;101932.64;;;-0.46;62.91
44351;BME280;62766;62.622;17.912;2022-11-20T02:30:36;101925.61;;;-0.49;63.02
44351;BME280;62766;62.622;17.912;2022-11-20T02:33:04;101926.05;;;-0.49;62.87
44351;BME280;62766;62.622;17.912;2022-11-20T02:35:41;101925.84;;;-0.43;62.88
44351;BME280;62766;62.622;17.912;2022-11-20T02:38:10;101923.18;;;-0.46;62.86
44351;BME280;62766;62.622;17.912;2022-11-20T02:40:39;101920.10;;;-0.60;62.67
44351;BME280;62766;62.622;17.912;2022-11-20T02:43:07;101921.18;;;-0.57;62.87
44351;BME280;62766;62.622;17.912;2022-11-20T02:45:36;101914.83;;;-0.57;62.69
44351;BME280;62766;62.622;17.912;2022-11-20T02:48:06;101911.45;;;-0.62;62.77
44351;BME280;62766;62.622;17.912;2022-11-20T02:50:37;101904.69;;;-0.71;62.98
44351;BME280;62766;62.622;17.912;2022-11-20T02:53:07;101904.86;;;-0.64;62.81
44351;BME280;62766;62.622;17.912;2022-11-20T02:55:36;101906.75;;;-0.76;62.91
44351;BME280;62766;62.622;17.912;2022-11-20T02:58:05;101906.08;;;-0.87;62.85
44351;BME280;62766;62.622;17.912;2022-11-20T03:00:35;101903.32;;;-0.60;62.76
44351;BME280;62766;62.622;17.912;2022-11-20T03:03:04;101897.55;;;-0.62;62.76
44351;BME280;62766;62.622;17.912;2022-11-20T03:05:33;101896.84;;;-0.76;62.83
44351;BME280;62766;62.622;17.912;2022-11-20T03:08:03;101904.57;;;-0.77;63.02
44351;BME280;62766;62.622;17.912;2022-11-20T03:10:34;101899.93;;;-0.86;62.89
44351;BME280;62766;62.622;17.912;2022-11-20T03:13:03;101903.23;;;-0.79;63.12
44351;BME280;62766;62.622;17.912;2022-11-20T03:15:33;101904.68;;;-0.91;63.43
44351;BME280;62766;62.622;17.912;2022-11-20T03:18:02;101901.68;;;-0.99;63.73
44351;BME280;62766;62.622;17.912;2022-11-20T03:20:33;101897.91;;;-1.10;63.80
44351;BME280;62766;62.622;17.912;2022-11-20T03:23:02;101897.78;;;-1.18;63.97
44351;BME280;62766;62.622;17.912;2022-11-20T03:25:31;101885.09;;;-1.07;64.06
44351;BME280;62766;62.622;17.912;2022-11-20T03:28:00;101893.98;;;-1.16;64.25
44351;BME280;62766;62.622;17.912;2022-11-20T03:30:28;101889.44;;;-1.10;64.39
44351;BME280;62766;62.622;17.912;2022-11-20T03:32:57;101892.69;;;-1.09;64.22
44351;BME280;62766;62.622;17.912;2022-11-20T03:35:25;101890.63;;;-0.95;64.11
44351;BME280;62766;62.622;17.912;2022-11-20T03:37:54;101888.27;;;-0.90;63.95
44351;BME280;62766;62.622;17.912;2022-11-20T03:40:22;101889.58;;;-0.95;63.89
44351;BME280;62766;62.622;17.912;2022-11-20T03:42:51;101889.08;;;-0.93;63.82
44351;BME280;62766;62.622;17.912;2022-11-20T03:45:19;101885.50;;;-1.01;63.91
44351;BME280;62766;62.622;17.912;2022-11-20T03:47:48;101880.26;;;-0.99;64.23
44351;BME280;62766;62.622;17.912;2022-11-20T03:50:16;101882.83;;;-1.08;64.28
44351;BME280;62766;62.622;17.912;2022-11-20T03:52:45;101874.76;;;-0.97;64.26
44351;BME280;62766;62.622;17.912;2022-11-20T03:55:13;101868.98;;;-0.99;64.33
44351;BME280;62766;62.622;17.912;2022-11-20T03:57:42;101865.60;;;-1.05;64.12
44351;BME280;62766;62.622;17.912;2022-11-20T04:00:12;101861.24;;;-1.11;64.26
44351;BME280;62766;62.622;17.912;2022-11-20T04:02:41;101861.80;;;-1.13;64.38
44351;BME280;62766;62.622;17.912;2022-11-20T04:05:09;101855.05;;;-1.17;64.55
44351;BME280;62766;62.622;17.912;2022-11-20T04:07:38;101861.21;;;-1.19;64.76
44351;BME280;62766;62.622;17.912;2022-11-20T04:10:07;101854.12;;;-1.31;64.95
44351;BME280;62766;62.622;17.912;2022-11-20T04:12:36;101854.76;;;-1.31;64.93
44351;BME280;62766;62.622;17.912;2022-11-20T04:15:06;101851.19;;;-1.30;64.93
44351;BME280;62766;62.622;17.912;2022-11-20T04:17:36;101848.87;;;-1.23;64.92
44351;BME280;62766;62.622;17.912;2022-11-20T04:20:05;101849.25;;;-1.26;64.87
44351;BME280;62766;62.622;17.912;2022-11-20T04:22:35;101843.40;;;-1.26;64.89
44351;BME280;62766;62.622;17.912;2022-11-20T04:25:04;101842.07;;;-1.28;64.83
44351;BME280;62766;62.622;17.912;2022-11-20T04:27:34;101843.73;;;-1.21;64.83
44351;BME280;62766;62.622;17.912;2022-11-20T04:30:04;101838.04;;;-1.20;64.75
44351;BME280;62766;62.622;17.912;2022-11-20T04:32:35;101834.23;;;-1.23;64.73
44351;BME280;62766;62.622;17.912;2022-11-20T04:35:05;101836.16;;;-1.22;64.87
44351;BME280;62766;62.622;17.912;2022-11-20T04:37:35;101838.10;;;-1.21;65.03
44351;BME280;62766;62.622;17.912;2022-11-20T04:40:04;101832.34;;;-1.15;65.15
44351;BME280;62766;62.622;17.912;2022-11-20T04:42:34;101832.69;;;-1.28;65.06
44351;BME280;62766;62.622;17.912;2022-11-20T04:45:04;101832.59;;;-1.10;65.07
44351;BME280;62766;62.622;17.912;2022-11-20T04:47:35;101836.53;;;-1.09;65.00
44351;BME280;62766;62.622;17.912;2022-11-20T04:50:05;101827.11;;;-1.10;64.85
44351;BME280;62766;62.622;17.912;2022-11-20T04:52:35;101827.31;;;-1.16;64.81
44351;BME280;62766;62.622;17.912;2022-11-20T04:55:05;101828.12;;;-1.23;64.86
44351;BME280;62766;62.622;17.912;2022-11-20T04:57:35;101820.79;;;-1.16;64.81
44351;BME280;62766;62.622;17.912;2022-11-20T05:03:35;101817.51;;;-1.35;64.79
44351;BME280;62766;62.622;17.912;2022-11-20T05:06:05;101819.41;;;-1.26;64.49
44351;BME280;62766;62.622;17.912;2022-11-20T05:08:34;101826.48;;;-1.41;64.47
44351;BME280;62766;62.622;17.912;2022-11-20T05:11:04;101817.14;;;-1.32;64.07
44351;BME280;62766;62.622;17.912;2022-11-20T05:13:33;101812.44;;;-1.34;63.70
44351;BME280;62766;62.622;17.912;2022-11-20T05:16:03;101810.82;;;-1.34;63.68
44351;BME280;62766;62.622;17.912;2022-11-20T05:18:33;101807.37;;;-1.39;63.70
44351;BME280;62766;62.622;17.912;2022-11-20T05:21:02;101810.68;;;-1.41;63.73
44351;BME280;62766;62.622;17.912;2022-11-20T05:23:31;101805.19;;;-1.45;63.75
44351;BME280;62766;62.622;17.912;2022-11-20T05:26:01;101800.49;;;-1.52;63.84
44351;BME280;62766;62.622;17.912;2022-11-20T05:28:32;101796.19;;;-1.50;64.01
44351;BME280;62766;62.622;17.912;2022-11-20T05:31:05;101800.05;;;-1.60;64.21
44351;BME280;62766;62.622;17.912;2022-11-20T05:33:34;101808.79;;;-1.66;64.27
44351;BME280;62766;62.622;17.912;2022-11-20T05:36:02;101803.01;;;-1.56;64.31
44351;BME280;62766;62.622;17.912;2022-11-20T05:38:32;101799.26;;;-1.59;64.13
44351;BME280;62766;62.622;17.912;2022-11-20T05:41:03;101797.43;;;-1.57;64.11
44351;BME280;62766;62.622;17.912;2022-11-20T05:43:33;101790.34;;;-1.58;64.13
44351;BME280;62766;62.622;17.912;2022-11-20T05:46:04;101787.55;;;-1.60;64.22
44351;BME280;62766;62.622;17.912;2022-11-20T05:48:34;101785.58;;;-1.68;64.35
44351;BME280;62766;62.622;17.912;2022-11-20T05:51:06;101785.93;;;-1.54;64.37
44351;BME280;62766;62.622;17.912;2022-11-20T05:53:36;101784.39;;;-1.55;64.23
44351;BME280;62766;62.622;17.912;2022-11-20T05:56:08;101783.57;;;-1.61;64.24
44351;BME280;62766;62.622;17.912;2022-11-20T05:58:39;101786.17;;;-1.60;64.20
44351;BME280;62766;62.622;17.912;2022-11-20T06:01:10;101786.03;;;-1.58;64.19
44351;BME280;62766;62.622;17.912;2022-11-20T06:03:41;101787.80;;;-1.53;64.12
44351;BME280;62766;62.622;17.912;2022-11-20T06:06:10;101780.73;;;-1.56;64.01
44351;BME280;62766;62.622;17.912;2022-11-20T06:08:40;101775.25;;;-1.56;63.66
44351;BME280;62766;62.622;17.912;2022-11-20T06:11:11;101770.88;;;-1.58;63.66
44351;BME280;62766;62.622;17.912;2022-11-20T06:13:41;101768.65;;;-1.52;63.81
44351;BME280;62766;62.622;17.912;2022-11-20T06:16:11;101774.09;;;-1.70;63.87
44351;BME280;62766;62.622;17.912;2022-11-20T06:18:40;101775.73;;;-1.69;64.08
44351;BME280;62766;62.622;17.912;2022-11-20T06:21:11;101766.08;;;-1.72;64.12
44351;BME280;62766;62.622;17.912;2022-11-20T06:23:40;101770.53;;;-1.57;64.13
44351;BME280;62766;62.622;17.912;2022-11-20T06:26:21;101772.94;;;-1.67;64.24
44351;BME280;62766;62.622;17.912;2022-11-20T06:28:50;101777.35;;;-1.78;64.41
44351;BME280;62766;62.622;17.912;2022-11-20T06:31:22;101767.19;;;-1.68;64.37
44351;BME280;62766;62.622;17.912;2022-11-20T06:33:52;101760.51;;;-1.74;64.60
44351;BME280;62766;62.622;17.912;2022-11-20T06:36:22;101756.53;;;-1.73;64.49
44351;BME280;62766;62.622;17.912;2022-11-20T06:38:51;101760.92;;;-1.76;64.63
44351;BME280;62766;62.622;17.912;2022-11-20T06:41:21;101757.17;;;-1.73;64.71
44351;BME280;62766;62.622;17.912;2022-11-20T06:43:50;101761.29;;;-1.69;64.74
44351;BME280;62766;62.622;17.912;2022-11-20T06:46:19;101757.31;;;-1.63;64.76
44351;BME280;62766;62.622;17.912;2022-11-20T06:48:49;101761.61;;;-1.54;64.61
44351;BME280;62766;62.622;17.912;2022-11-20T06:51:19;101757.74;;;-1.51;64.59
44351;BME280;62766;62.622;17.912;2022-11-20T06:53:48;101755.03;;;-1.48;64.59
44351;BME280;62766;62.622;17.912;2022-11-20T06:56:16;101758.72;;;-1.56;64.50
44351;BME280;62766;62.622;17.912;2022-11-20T06:58:45;101752.14;;;-1.52;64.46
44351;BME280;62766;62.622;17.912;2022-11-20T07:01:14;101755.40;;;-1.42;64.37
44351;BME280;62766;62.622;17.912;2022-11-20T07:03:44;101753.86;;;-1.50;64.28
44351;BME280;62766;62.622;17.912;2022-11-20T07:06:12;101752.14;;;-1.51;64.19
44351;BME280;62766;62.622;17.912;2022-11-20T07:08:41;101752.91;;;-1.50;64.24
44351;BME280;62766;62.622;17.912;2022-11-20T07:11:12;101742.77;;;-1.50;64.33
44351;BME280;62766;62.622;17.912;2022-11-20T07:13:41;101744.38;;;-1.53;64.41
44351;BME280;62766;62.622;17.912;2022-11-20T07:16:10;101742.65;;;-1.36;64.35
44351;BME280;62766;62.622;17.912;2022-11-20T07:18:39;101739.36;;;-1.31;64.15
44351;BME280;62766;62.622;17.912;2022-11-20T07:21:10;101737.08;;;-1.48;64.21
44351;BME280;62766;62.622;17.912;2022-11-20T07:23:40;101737.94;;;-1.25;64.09
44351;BME280;62766;62.622;17.912;2022-11-20T07:26:10;101725.95;;;-1.41;63.90
44351;BME280;62766;62.622;17.912;2022-11-20T07:28:43;101724.28;;;-1.34;63.94
44351;BME280;62766;62.622;17.912;2022-11-20T07:31:11;101720.41;;;-1.50;63.93
44351;BME280;62766;62.622;17.912;2022-11-20T07:33:40;101717.16;;;-1.44;64.21
44351;BME280;62766;62.622;17.912;2022-11-20T07:36:08;101715.29;;;-1.48;64.26
44351;BME280;62766;62.622;17.912;2022-11-20T07:38:38;101711.32;;;-1.43;64.34
44351;BME280;62766;62.622;17.912;2022-11-20T07:41:12;101710.72;;;-1.47;64.31
44351;BME280;62766;62.622;17.912;2022-11-20T07:43:43;101701.31;;;-1.33;64.21
44351;BME280;62766;62.622;17.912;2022-11-20T07:46:11;101699.31;;;-1.41;64.28
44351;BME280;62766;62.622;17.912;2022-11-20T07:48:40;101689.48;;;-1.48;64.21
44351;BME280;62766;62.622;17.912;2022-11-20T07:51:08;101696.60;;;-1.45;64.37
44351;BME280;62766;62.622;17.912;2022-11-20T07:53:37;101701.36;;;-1.49;64.63
44351;BME280;62766;62.622;17.912;2022-11-20T07:56:07;101703.77;;;-1.45;64.57
44351;BME280;62766;62.622;17.912;2022-11-20T07:58:35;101707.14;;;-1.45;64.55
44351;BME280;62766;62.622;17.912;2022-11-20T08:01:05;101699.03;;;-1.40;64.59
44351;BME280;62766;62.622;17.912;2022-11-20T08:03:35;101703.72;;;-1.46;64.73
44351;BME280;62766;62.622;17.912;2022-11-20T08:06:05;101710.21;;;-1.49;64.70
44351;BME280;62766;62.622;17.912;2022-11-20T08:08:35;101709.02;;;-1.38;64.59
44351;BME280;62766;62.622;17.912;2022-11-20T08:11:04;101707.35;;;-1.29;64.57
44351;BME280;62766;62.622;17.912;2022-11-20T08:13:32;101707.60;;;-1.27;64.37
44351;BME280;62766;62.622;17.912;2022-11-20T08:16:01;101706.77;;;-1.10;64.13
44351;BME280;62766;62.622;17.912;2022-11-20T08:18:29;101707.27;;;-1.12;64.07
44351;BME280;62766;62.622;17.912;2022-11-20T08:20:58;101701.15;;;-1.19;63.94
44351;BME280;62766;62.622;17.912;2022-11-20T08:23:26;101691.85;;;-1.09;63.90
44351;BME280;62766;62.622;17.912;2022-11-20T08:25:55;101691.19;;;-1.03;63.65
44351;BME280;62766;62.622;17.912;2022-11-20T08:28:23;101689.44;;;-0.99;63.63
44351;BME280;62766;62.622;17.912;2022-11-20T08:30:57;101690.20;;;-1.04;63.61
44351;BME280;62766;62.622;17.912;2022-11-20T08:33:26;101693.30;;;-0.95;63.58
44351;BME280;62766;62.622;17.912;2022-11-20T08:35:58;101689.01;;;-1.04;63.51
44351;BME280;62766;62.622;17.912;2022-11-20T08:38:28;101683.55;;;-1.15;63.65
44351;BME280;62766;62.622;17.912;2022-11-20T08:40:57;101685.60;;;-1.13;63.65
44351;BME280;62766;62.622;17.912;2022-11-20T08:43:26;101682.94;;;-0.94;63.57
44351;BME280;62766;62.622;17.912;2022-11-20T08:45:56;101679.36;;;-0.90;63.53
44351;BME280;62766;62.622;17.912;2022-11-20T08:48:25;101677.92;;;-0.91;63.52
44351;BME280;62766;62.622;17.912;2022-11-20T08:50:57;101683.54;;;-0.75;63.22
44351;BME280;62766;62.622;17.912;2022-11-20T08:53:26;101684.76;;;-0.88;62.95
44351;BME280;62766;62.622;17.912;2022-11-20T08:55:55;101677.88;;;-0.93;62.84
44351;BME280;62766;62.622;17.912;2022-11-20T08:58:25;101678.83;;;-0.85;62.88
44351;BME280;62766;62.622;17.912;2022-11-20T09:00:53;101673.44;;;-0.96;63.14
44351;BME280;62766;62.622;17.912;2022-11-20T09:03:22;101670.94;;;-1.06;63.23
44351;BME280;62766;62.622;17.912;2022-11-20T09:05:50;101670.01;;;-0.86;63.21
44351;BME280;62766;62.622;17.912;2022-11-20T09:08:18;101665.62;;;-0.80;62.90
44351;BME280;62766;62.622;17.912;2022-11-20T09:10:51;101672.92;;;-0.80;62.64
44351;BME280;62766;62.622;17.912;2022-11-20T09:13:19;101675.69;;;-0.77;62.22
44351;BME280;62766;62.622;17.912;2022-11-20T09:15:53;101674.38;;;-0.77;62.31
44351;BME280;62766;62.622;17.912;2022-11-20T09:18:21;101668.88;;;-0.65;62.52
44351;BME280;62766;62.622;17.912;2022-11-20T09:20:50;101671.15;;;-0.60;62.39
44351;BME280;62766;62.622;17.912;2022-11-20T09:23:18;101670.68;;;-0.60;62.38
44351;BME280;62766;62.622;17.912;2022-11-20T09:25:47;101668.16;;;-0.48;62.32
44351;BME280;62766;62.622;17.912;2022-11-20T09:28:15;101664.33;;;-0.42;62.01
44351;BME280;62766;62.622;17.912;2022-11-20T09:30:49;101659.69;;;-0.36;61.70
44351;BME280;62766;62.622;17.912;2022-11-20T09:33:17;101651.84;;;-0.28;61.71
44351;BME280;62766;62.622;17.912;2022-11-20T09:35:46;101647.07;;;-0.33;61.64
44351;BME280;62766;62.622;17.912;2022-11-20T09:38:14;101646.51;;;-0.48;61.65
44351;BME280;62766;62.622;17.912;2022-11-20T09:40:47;101641.29;;;-0.28;61.54
44351;BME280;62766;62.622;17.912;2022-11-20T09:43:23;101638.83;;;-0.39;61.43
44351;BME280;62766;62.622;17.912;2022-11-20T09:46:07;101640.32;;;-0.32;61.40
44351;BME280;62766;62.622;17.912;2022-11-20T09:48:49;101638.66;;;-0.26;61.62
44351;BME280;62766;62.622;17.912;2022-11-20T09:51:31;101638.10;;;-0.25;61.38
44351;BME280;62766;62.622;17.912;2022-11-20T09:54:14;101632.69;;;-0.16;61.44
44351;BME280;62766;62.622;17.912;2022-11-20T09:56:47;101632.05;;;-0.22;61.51
44351;BME280;62766;62.622;17.912;2022-11-20T09:59:30;101630.38;;;-0.20;61.57
44351;BME280;62766;62.622;17.912;2022-11-20T10:02:08;101626.24;;;-0.09;61.61
44351;BME280;62766;62.622;17.912;2022-11-20T10:04:45;101621.70;;;-0.11;61.62
44351;BME280;62766;62.622;17.912;2022-11-20T10:07:20;101619.89;;;-0.10;61.61
44351;BME280;62766;62.622;17.912;2022-11-20T10:09:54;101616.78;;;-0.16;61.68
44351;BME280;62766;62.622;17.912;2022-11-20T10:12:30;101618.63;;;0.02;61.59
44351;BME280;62766;62.622;17.912;2022-11-20T10:15:12;101617.36;;;-0.07;61.69
44351;BME280;62766;62.622;17.912;2022-11-20T10:18:02;101615.14;;;-0.15;61.72
44351;BME280;62766;62.622;17.912;2022-11-20T10:20:42;101619.71;;;-0.32;61.98
44351;BME280;62766;62.622;17.912;2022-11-20T10:23:29;101611.73;;;-0.28;62.16
44351;BME280;62766;62.622;17.912;2022-11-20T10:26:17;101612.29;;;-0.03;62.14
44351;BME280;62766;62.622;17.912;2022-11-20T10:29:05;101611.47;;;-0.02;61.96
44351;BME280;62766;62.622;17.912;2022-11-20T10:31:39;101604.55;;;0.06;61.79
44351;BME280;62766;62.622;17.912;2022-11-20T10:34:22;101592.56;;;-0.13;61.71
44351;BME280;62766;62.622;17.912;2022-11-20T10:36:55;101594.51;;;0.04;61.82
44351;BME280;62766;62.622;17.912;2022-11-20T10:39:32;101598.38;;;0.08;61.75
44351;BME280;62766;62.622;17.912;2022-11-20T10:42:02;101598.85;;;0.12;61.75
44351;BME280;62766;62.622;17.912;2022-11-20T10:44:36;101597.97;;;0.27;61.68
44351;BME280;62766;62.622;17.912;2022-11-20T10:47:13;101597.55;;;0.40;61.24
44351;BME280;62766;62.622;17.912;2022-11-20T10:49:45;101596.79;;;0.23;61.28
44351;BME280;62766;62.622;17.912;2022-11-20T10:52:21;101591.64;;;0.37;61.10
44351;BME280;62766;62.622;17.912;2022-11-20T10:55:06;101587.98;;;0.41;60.63
44351;BME280;62766;62.622;17.912;2022-11-20T10:57:52;101586.21;;;0.59;60.54
44351;BME280;62766;62.622;17.912;2022-11-20T11:03:31;101572.26;;;0.36;60.52
44351;BME280;62766;62.622;17.912;2022-11-20T11:06:05;101574.81;;;0.33;60.64
44351;BME280;62766;62.622;17.912;2022-11-20T11:08:37;101570.24;;;0.39;60.97
44351;BME280;62766;62.622;17.912;2022-11-20T11:11:18;101568.69;;;0.31;61.15
44351;BME280;62766;62.622;17.912;2022-11-20T11:13:48;101564.23;;;0.42;61.15
44351;BME280;62766;62.622;17.912;2022-11-20T11:16:21;101558.81;;;0.38;61.22
44351;BME280;62766;62.622;17.912;2022-11-20T11:18:50;101557.03;;;0.35;61.11
44351;BME280;62766;62.622;17.912;2022-11-20T11:21:23;101551.74;;;0.52;60.88
44351;BME280;62766;62.622;17.912;2022-11-20T11:24:00;101540.36;;;0.54;60.74
44351;BME280;62766;62.622;17.912;2022-11-20T11:26:29;101541.28;;;0.53;60.66
44351;BME280;62766;62.622;17.912;2022-11-20T11:28:59;101536.20;;;0.50;60.92
44351;BME280;62766;62.622;17.912;2022-11-20T11:31:29;101527.68;;;0.43;60.89
44351;BME280;62766;62.622;17.912;2022-11-20T11:34:06;101530.63;;;0.53;60.95
44351;BME280;62766;62.622;17.912;2022-11-20T11:36:35;101529.66;;;0.49;61.04
44351;BME280;62766;62.622;17.912;2022-11-20T11:39:08;101527.80;;;0.58;61.09
44351;BME280;62766;62.622;17.912;2022-11-20T11:41:41;101528.47;;;0.55;60.93
44351;BME280;62766;62.622;17.912;2022-11-20T11:44:17;101525.88;;;0.66;60.87
44351;BME280;62766;62.622;17.912;2022-11-20T11:46:52;101521.46;;;0.50;60.96
44351;BME280;62766;62.622;17.912;2022-11-20T11:49:22;101518.28;;;0.49;61.24
44351;BME280;62766;62.622;17.912;2022-11-20T11:52:00;101517.66;;;0.63;61.38
44351;BME280;62766;62.622;17.912;2022-11-20T11:54:35;101516.46;;;0.56;61.59
44351;BME280;62766;62.622;17.912;2022-11-20T11:57:11;101514.23;;;0.44;61.80
44351;BME280;62766;62.622;17.912;2022-11-20T11:59:51;101509.05;;;0.50;62.05
44351;BME280;62766;62.622;17.912;2022-11-20T12:02:31;101507.52;;;0.46;62.14
44351;BME280;62766;62.622;17.912;2022-11-20T12:05:09;101499.90;;;0.46;62.16
44351;BME280;62766;62.622;17.912;2022-11-20T12:07:42;101504.87;;;0.55;62.25
44351;BME280;62766;62.622;17.912;2022-11-20T12:10:20;101499.14;;;0.48;62.59
44351;BME280;62766;62.622;17.912;2022-11-20T12:12:53;101500.28;;;0.49;62.79
44351;BME280;62766;62.622;17.912;2022-11-20T12:15:29;101491.85;;;0.46;62.92
44351;BME280;62766;62.622;17.912;2022-11-20T12:17:57;101489.68;;;0.51;62.95
44351;BME280;62766;62.622;17.912;2022-11-20T12:20:28;101479.14;;;0.59;62.70
44351;BME280;62766;62.622;17.912;2022-11-20T12:23:05;101476.18;;;0.44;62.59
44351;BME280;62766;62.622;17.912;2022-11-20T12:25:38;101476.33;;;0.50;62.55
44351;BME280;62766;62.622;17.912;2022-11-20T12:28:20;101475.80;;;0.46;62.60
44351;BME280;62766;62.622;17.912;2022-11-20T12:31:05;101474.90;;;0.34;62.56
44351;BME280;62766;62.622;17.912;2022-11-20T12:33:51;101470.83;;;0.34;62.88
44351;BME280;62766;62.622;17.912;2022-11-20T12:36:31;101472.00;;;0.32;63.06
44351;BME280;62766;62.622;17.912;2022-11-20T12:39:41;101468.57;;;0.47;63.43
44351;BME280;62766;62.622;17.912;2022-11-20T12:42:23;101462.93;;;0.37;63.54
44351;BME280;62766;62.622;17.912;2022-11-20T12:45:10;101465.05;;;0.34;63.71
44351;BME280;62766;62.622;17.912;2022-11-20T12:48:00;101468.16;;;0.32;63.82
44351;BME280;62766;62.622;17.912;2022-11-20T12:50:39;101465.06;;;0.23;63.75
44351;BME280;62766;62.622;17.912;2022-11-20T12:53:23;101465.30;;;0.32;63.80
44351;BME280;62766;62.622;17.912;2022-11-20T12:56:02;101466.55;;;0.32;64.24
44351;BME280;62766;62.622;17.912;2022-11-20T12:58:39;101460.44;;;0.22;64.37
44351;BME280;62766;62.622;17.912;2022-11-20T13:01:23;101456.77;;;0.15;64.42
44351;BME280;62766;62.622;17.912;2022-11-20T13:03:53;101462.63;;;0.26;64.48
44351;BME280;62766;62.622;17.912;2022-11-20T13:06:26;101467.55;;;0.17;64.39
44351;BME280;62766;62.622;17.912;2022-11-20T13:08:55;101461.25;;;0.25;64.45
44351;BME280;62766;62.622;17.912;2022-11-20T13:11:31;101460.82;;;0.15;64.51